Time;durP1;ratioP1;P1;durP2;ratioP2;P2;SDS_P1;SDS_P2;PMS_P1;PMS_P2;Temp;Humidity;BMP_temperature;BMP_pressure;BME280_temperature;BME280_humidity;BME280_pressure;Samples;Min_cycle;Max_cycle;Signal;HPM_P1;HPM_P2
2021/01/19 00:00:58;;;;;;;1.03;0.90;;;;;;;9.82;100.00;101185.45;1854308;77;26331;-87
2021/01/19 00:03:32;;;;;;;1.30;0.70;;;;;;;9.95;100.00;101171.91;1854212;77;26186;-85
2021/01/19 00:06:07;;;;;;;1.30;0.80;;;;;;;9.93;100.00;101148.29;1854217;77;26687;-86
2021/01/19 00:08:46;;;;;;;0.90;0.73;;;;;;;9.94;100.00;101162.45;1787802;78;26408;-87
2021/01/19 00:11:16;;;;;;;0.60;0.60;;;;;;;10.04;100.00;101165.27;1848395;77;26195;-85
2021/01/19 00:13:46;;;;;;;0.87;0.80;;;;;;;9.97;100.00;101158.57;1848258;77;26191;-84
2021/01/19 00:16:16;;;;;;;1.70;0.90;;;;;;;9.99;100.00;101159.15;1848202;77;26176;-83
2021/01/19 00:18:46;;;;;;;0.67;0.60;;;;;;;10.08;100.00;101140.02;1848208;77;26289;-83
2021/01/19 00:21:16;;;;;;;1.80;0.70;;;;;;;10.05;100.00;101151.09;1848241;77;26265;-84
2021/01/19 00:23:46;;;;;;;1.43;0.80;;;;;;;10.10;100.00;101147.50;1848237;77;26323;-83
2021/01/19 00:26:16;;;;;;;1.00;0.80;;;;;;;10.13;100.00;101136.42;1848271;77;26198;-83
2021/01/19 00:28:47;;;;;;;1.40;0.90;;;;;;;10.19;100.00;101120.06;1848230;77;26256;-83
2021/01/19 00:31:17;;;;;;;1.13;0.90;;;;;;;10.18;100.00;101098.98;1848248;77;26264;-83
2021/01/19 00:33:47;;;;;;;1.00;0.90;;;;;;;10.18;100.00;101085.95;1848288;77;26206;-83
2021/01/19 00:36:17;;;;;;;1.10;1.00;;;;;;;10.28;100.00;101076.77;1854300;77;26210;-84
2021/01/19 00:38:47;;;;;;;1.40;1.10;;;;;;;10.29;100.00;101072.33;1854188;77;26174;-84
2021/01/19 00:41:17;;;;;;;1.70;1.30;;;;;;;10.33;100.00;101067.88;1854197;77;26256;-83
2021/01/19 00:43:47;;;;;;;1.10;1.00;;;;;;;10.29;100.00;101052.06;1854162;77;26194;-85
2021/01/19 00:46:17;;;;;;;1.40;1.20;;;;;;;10.39;100.00;101036.23;1854118;77;26606;-85
2021/01/19 00:48:47;;;;;;;1.90;1.30;;;;;;;10.31;100.00;101032.61;1854225;77;26725;-86
2021/01/19 00:51:18;;;;;;;2.17;1.50;;;;;;;10.37;100.00;101039.84;1854264;77;26181;-86
2021/01/19 00:53:50;;;;;;;1.80;1.50;;;;;;;10.41;100.00;101032.61;1854541;77;26186;-86
2021/01/19 00:56:21;;;;;;;1.00;0.90;;;;;;;10.37;100.00;101035.67;1841513;77;26197;-86
2021/01/19 00:58:51;;;;;;;1.33;1.00;;;;;;;10.37;100.00;101027.34;1846148;76;26193;-86
2021/01/19 01:01:23;;;;;;;1.67;0.80;;;;;;;10.42;100.00;101012.62;1875594;76;26190;-86
2021/01/19 01:03:57;;;;;;;1.80;0.70;;;;;;;10.43;100.00;101004.02;1854145;77;26189;-86
2021/01/19 01:06:32;;;;;;;1.00;0.80;;;;;;;10.48;100.00;100997.04;1854188;77;26279;-86
2021/01/19 01:09:05;;;;;;;0.90;0.70;;;;;;;10.46;100.00;100990.11;1854180;76;26323;-85
2021/01/19 01:11:41;;;;;;;0.77;0.60;;;;;;;10.41;100.00;100985.41;1854158;77;26262;-85
2021/01/19 01:14:17;;;;;;;2.27;0.70;;;;;;;10.51;100.00;100977.61;1854061;77;26194;-83
2021/01/19 01:16:51;;;;;;;1.07;0.50;;;;;;;10.53;100.00;100970.37;1854141;77;26264;-84
2021/01/19 01:19:23;;;;;;;2.77;0.70;;;;;;;10.55;100.00;100954.27;1854217;77;26195;-84
2021/01/19 01:21:56;;;;;;;1.30;0.60;;;;;;;10.53;100.00;100957.31;1854073;77;26186;-83
2021/01/19 01:24:29;;;;;;;1.23;0.70;;;;;;;10.52;100.00;100948.73;1854221;77;26786;-83
2021/01/19 01:26:59;;;;;;;0.57;0.40;;;;;;;10.47;100.00;100938.47;1854225;77;26644;-83
2021/01/19 01:29:31;;;;;;;0.40;0.40;;;;;;;10.55;100.00;100934.83;1854330;77;26699;-83
2021/01/19 01:32:01;;;;;;;0.60;0.50;;;;;;;10.51;100.00;100913.73;1839933;77;26190;-83
2021/01/19 01:34:30;;;;;;;0.83;0.40;;;;;;;10.59;100.00;100920.64;1847179;78;26276;-83
2021/01/19 01:37:00;;;;;;;0.43;0.40;;;;;;;10.62;100.00;100911.18;1848294;77;26636;-84
2021/01/19 01:39:30;;;;;;;0.93;0.43;;;;;;;10.62;100.00;100904.23;1854266;77;26198;-83
2021/01/19 01:42:00;;;;;;;0.90;0.57;;;;;;;10.57;100.00;100894.53;1854290;77;26687;-84
2021/01/19 01:44:31;;;;;;;0.70;0.60;;;;;;;10.61;100.00;100909.51;1854377;77;26201;-84
2021/01/19 01:47:03;;;;;;;0.70;0.70;;;;;;;10.73;100.00;100891.98;1853517;77;26256;-84
2021/01/19 01:49:36;;;;;;;0.73;0.70;;;;;;;10.65;100.00;100881.47;1819733;79;26277;-83
2021/01/19 01:52:06;;;;;;;0.73;0.60;;;;;;;10.62;100.00;100888.13;1854201;77;26372;-84
2021/01/19 01:54:36;;;;;;;0.83;0.57;;;;;;;10.71;100.00;100895.59;1854289;77;26256;-84
2021/01/19 01:57:08;;;;;;;1.90;0.67;;;;;;;10.66;100.00;100896.99;1852362;76;26331;-84
2021/01/19 01:59:38;;;;;;;0.80;0.60;;;;;;;10.63;100.00;100899.52;1873493;76;26688;-84
2021/01/19 02:02:12;;;;;;;0.70;0.70;;;;;;;10.57;100.00;100901.47;1873497;76;26777;-84
2021/01/19 02:04:43;;;;;;;1.63;0.80;;;;;;;10.59;100.00;100906.20;1858288;76;26264;-84
2021/01/19 02:07:21;;;;;;;1.30;0.80;;;;;;;10.56;100.00;100894.83;1854234;77;26356;-84
2021/01/19 02:09:58;;;;;;;2.77;0.70;;;;;;;10.57;100.00;100880.64;1854267;76;26324;-84
2021/01/19 02:12:33;;;;;;;0.87;0.67;;;;;;;10.57;100.00;100868.14;1860517;77;26276;-84
2021/01/19 02:15:06;;;;;;;2.57;0.50;;;;;;;10.54;100.00;100863.16;1860394;76;26271;-83
2021/01/19 02:17:43;;;;;;;1.07;0.50;;;;;;;10.48;100.00;100858.18;1856200;77;26664;-82
2021/01/19 02:20:38;;;;;;;1.07;0.40;;;;;;;10.56;100.00;100868.45;1808101;79;26216;-82
2021/01/19 02:23:11;;;;;;;1.30;0.30;;;;;;;10.47;100.00;100855.16;1847126;78;26231;-82
2021/01/19 02:26:26;;;;;;;1.23;0.40;;;;;;;10.48;100.00;100853.22;1847986;77;26200;-84
2021/01/19 02:32:08;;;;;;;2.00;0.30;;;;;;;10.58;100.00;100853.70;1854266;77;26215;-69
2021/01/19 02:34:41;;;;;;;0.60;0.30;;;;;;;10.55;100.00;100829.28;1819623;78;26302;-69
2021/01/19 02:37:14;;;;;;;0.50;0.50;;;;;;;10.47;100.00;100832.94;1848009;77;26812;-69
2021/01/19 02:39:47;;;;;;;1.90;0.40;;;;;;;10.55;100.00;100821.78;1854277;77;26248;-69
2021/01/19 02:42:20;;;;;;;0.90;0.40;;;;;;;10.53;100.00;100816.23;1819657;78;26694;-69
2021/01/19 02:44:52;;;;;;;0.20;0.20;;;;;;;10.53;100.00;100814.28;1848233;78;26727;-69
2021/01/19 02:47:22;;;;;;;0.43;0.43;;;;;;;10.54;100.00;100802.63;1848272;78;26241;-69
2021/01/19 02:49:52;;;;;;;0.73;0.30;;;;;;;10.56;100.00;100797.62;1854119;77;26676;-69
2021/01/19 02:52:23;;;;;;;0.50;0.40;;;;;;;10.54;100.00;100784.56;1854152;77;26300;-69
2021/01/19 02:54:54;;;;;;;1.40;0.30;;;;;;;10.55;100.00;100790.41;1854162;77;26723;-69
2021/01/19 02:57:34;;;;;;;0.23;0.23;;;;;;;10.59;100.00;100794.27;1854118;77;26190;-69
2021/01/19 03:00:09;;;;;;;1.17;0.40;;;;;;;10.62;100.00;100778.41;1819454;79;26290;-69
2021/01/19 03:02:42;;;;;;;1.00;0.30;;;;;;;10.61;100.00;100773.99;1854282;77;26182;-69
2021/01/19 03:05:13;;;;;;;0.50;0.30;;;;;;;10.68;100.00;100775.33;1854186;77;26209;-69
2021/01/19 03:07:45;;;;;;;1.37;0.30;;;;;;;10.65;100.00;100766.74;1854066;77;26214;-69
2021/01/19 03:10:17;;;;;;;0.20;0.20;;;;;;;10.68;100.00;100763.38;1854113;77;26185;-69
2021/01/19 03:12:48;;;;;;;0.30;0.30;;;;;;;10.64;100.00;100763.13;1854114;77;26643;-69
2021/01/19 03:15:19;;;;;;;0.27;0.27;;;;;;;10.72;100.00;100757.52;1854068;77;26665;-69
2021/01/19 03:17:49;;;;;;;0.20;0.20;;;;;;;10.82;100.00;100759.67;1854090;77;26268;-70
2021/01/19 03:20:22;;;;;;;0.70;0.30;;;;;;;10.79;100.00;100756.63;1854112;77;26190;-70
2021/01/19 03:22:52;;;;;;;0.47;0.30;;;;;;;10.77;100.00;100747.77;1854311;77;26177;-70
2021/01/19 03:25:22;;;;;;;0.93;0.40;;;;;;;10.87;100.00;100753.22;1854094;77;26608;-69
2021/01/19 03:27:52;;;;;;;0.97;0.30;;;;;;;10.75;100.00;100754.98;1854213;77;26357;-69
2021/01/19 03:30:22;;;;;;;2.10;0.50;;;;;;;10.77;100.00;100756.93;1854082;77;26245;-70
2021/01/19 03:32:52;;;;;;;0.20;0.20;;;;;;;10.84;100.00;100742.70;1854109;77;26190;-70
2021/01/19 03:35:22;;;;;;;0.97;0.40;;;;;;;10.91;100.00;100755.13;1854091;77;26194;-69
2021/01/19 03:37:51;;;;;;;2.37;0.50;;;;;;;10.91;100.00;100747.39;1854111;77;26244;-69
2021/01/19 03:40:21;;;;;;;0.20;0.20;;;;;;;11.00;100.00;100749.78;1854099;77;26268;-70
2021/01/19 03:42:52;;;;;;;1.10;0.50;;;;;;;11.02;100.00;100752.28;1854096;77;26283;-69
2021/01/19 03:45:22;;;;;;;1.13;0.40;;;;;;;10.96;100.00;100757.88;1854080;77;26201;-69
2021/01/19 03:47:51;;;;;;;0.70;0.40;;;;;;;11.04;100.00;100754.23;1854168;77;26244;-70
2021/01/19 03:50:21;;;;;;;1.90;0.37;;;;;;;11.04;100.00;100748.08;1854120;77;26182;-69
2021/01/19 03:52:51;;;;;;;0.87;0.20;;;;;;;11.00;100.00;100750.34;1854237;77;26263;-69
2021/01/19 03:55:21;;;;;;;0.53;0.30;;;;;;;11.06;100.00;100745.02;1854172;77;26272;-69
2021/01/19 03:57:51;;;;;;;0.20;0.20;;;;;;;11.18;100.00;100749.64;1854284;77;26248;-69
2021/01/19 04:00:21;;;;;;;0.30;0.20;;;;;;;11.12;100.00;100743.88;1854246;77;26699;-69
2021/01/19 04:02:51;;;;;;;0.27;0.27;;;;;;;11.13;100.00;100738.56;1854218;77;26256;-70
2021/01/19 04:05:21;;;;;;;0.80;0.60;;;;;;;11.18;100.00;100744.91;1854224;77;26264;-69
2021/01/19 04:07:51;;;;;;;0.87;0.30;;;;;;;11.21;100.00;100736.56;1854263;77;26222;-70
2021/01/19 04:10:22;;;;;;;1.13;0.40;;;;;;;11.28;100.00;100735.66;1854193;77;26280;-69
2021/01/19 04:12:52;;;;;;;1.53;0.40;;;;;;;11.31;100.00;100727.55;1854225;77;26267;-69
2021/01/19 04:15:22;;;;;;;0.63;0.40;;;;;;;11.30;100.00;100734.78;1854191;77;26267;-69
2021/01/19 04:17:51;;;;;;;1.27;0.50;;;;;;;11.26;100.00;100732.32;1854314;77;26193;-69
2021/01/19 04:20:21;;;;;;;1.90;0.50;;;;;;;11.37;100.00;100736.68;1854227;77;26178;-69
2021/01/19 04:22:51;;;;;;;0.37;0.30;;;;;;;11.39;100.00;100734.42;1854198;77;26190;-69
2021/01/19 04:25:21;;;;;;;0.40;0.40;;;;;;;11.40;100.00;100739.70;1854218;77;26197;-69
2021/01/19 04:27:51;;;;;;;2.30;0.90;;;;;;;11.40;100.00;100733.30;1854234;77;26263;-69
2021/01/19 04:30:22;;;;;;;1.07;0.50;;;;;;;11.50;100.00;100729.04;1854208;77;26198;-70
2021/01/19 04:32:52;;;;;;;2.43;0.80;;;;;;;11.54;100.00;100723.71;1854274;76;26300;-70
2021/01/19 04:35:22;;;;;;;0.43;0.40;;;;;;;11.58;100.00;100727.55;1854342;77;26277;-70
2021/01/19 04:37:51;;;;;;;1.23;0.60;;;;;;;11.62;100.00;100727.23;1854276;77;26620;-69
2021/01/19 04:40:21;;;;;;;0.47;0.47;;;;;;;11.53;100.00;100724.27;1854280;77;26264;-69
2021/01/19 04:42:52;;;;;;;2.43;0.63;;;;;;;11.68;100.00;100728.26;1854161;77;26629;-69
2021/01/19 04:45:23;;;;;;;0.50;0.47;;;;;;;11.59;100.00;100723.10;1854196;77;26260;-70
2021/01/19 04:47:54;;;;;;;1.13;0.60;;;;;;;11.62;100.00;100726.67;1854193;77;26800;-69
2021/01/19 04:50:24;;;;;;;1.07;0.47;;;;;;;11.66;100.00;100724.13;1854203;77;26276;-70
2021/01/19 04:52:57;;;;;;;2.77;0.70;;;;;;;11.66;100.00;100722.73;1854195;77;26608;-70
2021/01/19 04:55:28;;;;;;;1.13;0.60;;;;;;;11.58;100.00;100724.22;1854248;77;26198;-69
2021/01/19 04:58:01;;;;;;;2.50;0.70;;;;;;;11.66;100.00;100718.00;1854252;77;26288;-69
2021/01/19 05:00:33;;;;;;;1.80;0.50;;;;;;;11.71;100.00;100725.46;1842138;77;933735;-69
2021/01/19 05:03:29;;;;;;;1.77;0.60;;;;;;;11.72;100.00;100717.42;1854286;77;26190;-69
2021/01/19 05:06:05;;;;;;;1.90;0.60;;;;;;;11.68;100.00;100727.45;1872277;76;26229;-69
2021/01/19 05:09:10;;;;;;;2.50;0.60;;;;;;;11.70;100.00;100721.84;1871593;76;26177;-69
2021/01/19 05:11:51;;;;;;;0.60;0.60;;;;;;;11.67;100.00;100722.45;1857131;76;26279;-69
2021/01/19 05:14:23;;;;;;;1.37;0.70;;;;;;;11.68;100.00;100725.48;1888553;75;26258;-69
2021/01/19 05:16:52;;;;;;;1.90;0.70;;;;;;;11.74;100.00;100722.11;1888462;76;26295;-70
2021/01/19 05:19:24;;;;;;;1.90;0.60;;;;;;;11.70;100.00;100721.84;1888508;76;26205;-70
2021/01/19 05:21:55;;;;;;;2.03;0.83;;;;;;;11.66;100.00;100716.61;1888697;76;26236;-69
2021/01/19 05:24:25;;;;;;;0.70;0.60;;;;;;;11.68;100.00;100708.78;1888484;76;26196;-70
2021/01/19 05:26:55;;;;;;;0.80;0.70;;;;;;;11.70;100.00;100715.45;1888512;76;26184;-70
2021/01/19 05:29:25;;;;;;;1.47;0.70;;;;;;;11.75;100.00;100701.52;1888490;76;26270;-69
2021/01/19 05:31:55;;;;;;;1.13;0.40;;;;;;;11.77;100.00;100705.64;1888393;75;26271;-69
2021/01/19 05:34:24;;;;;;;2.60;0.73;;;;;;;11.76;100.00;100699.01;1888455;76;26170;-70
2021/01/19 05:36:56;;;;;;;0.60;0.40;;;;;;;11.76;100.00;100713.75;1888455;76;26734;-69
2021/01/19 05:39:26;;;;;;;0.80;0.57;;;;;;;11.81;100.00;100704.48;1888551;76;26722;-69
2021/01/19 05:41:57;;;;;;;1.20;0.70;;;;;;;11.81;100.00;100708.09;1888582;76;26193;-70
2021/01/19 05:44:29;;;;;;;3.20;0.90;;;;;;;11.77;100.00;100703.42;1888461;76;26643;-70
2021/01/19 05:47:05;;;;;;;2.97;0.50;;;;;;;11.80;100.00;100699.51;1888594;76;26634;-69
2021/01/19 05:49:38;;;;;;;0.60;0.50;;;;;;;11.82;100.00;100701.98;1888540;76;26599;-69
2021/01/19 05:52:09;;;;;;;2.00;0.60;;;;;;;11.83;100.00;100688.33;1888481;76;26185;-69
2021/01/19 05:54:41;;;;;;;1.27;0.60;;;;;;;11.82;100.00;100697.24;1888566;76;26682;-69
2021/01/19 05:57:13;;;;;;;1.50;0.50;;;;;;;11.76;100.00;100701.23;1888537;76;26643;-69
2021/01/19 05:59:45;;;;;;;1.00;0.57;;;;;;;11.80;100.00;100705.08;1888475;76;26188;-69
2021/01/19 06:02:16;;;;;;;2.37;0.57;;;;;;;11.80;100.00;100699.51;1888544;76;26214;-69
2021/01/19 06:04:48;;;;;;;1.23;0.50;;;;;;;11.78;100.00;100703.70;1888442;76;26262;-69
2021/01/19 06:07:21;;;;;;;0.50;0.40;;;;;;;11.82;100.00;100706.98;1888548;76;26294;-69
2021/01/19 06:09:52;;;;;;;1.07;0.60;;;;;;;11.88;100.00;100700.80;1888546;76;26189;-69
2021/01/19 06:12:22;;;;;;;2.00;0.40;;;;;;;11.88;100.00;100695.80;1888469;76;26325;-69
2021/01/19 06:14:53;;;;;;;1.87;0.40;;;;;;;11.89;100.00;100705.25;1888472;76;26188;-69
2021/01/19 06:17:24;;;;;;;1.03;0.40;;;;;;;11.85;100.00;100701.41;1888517;76;26628;-69
2021/01/19 06:19:57;;;;;;;1.20;0.53;;;;;;;11.85;100.00;100697.23;1888434;76;26281;-69
2021/01/19 06:22:29;;;;;;;1.33;0.40;;;;;;;11.86;100.00;100694.69;1888451;76;26200;-69
2021/01/19 06:25:01;;;;;;;1.00;0.40;;;;;;;11.88;100.00;100698.02;1888559;76;26639;-69
2021/01/19 06:27:33;;;;;;;0.53;0.40;;;;;;;11.93;100.00;100697.13;1888541;76;26644;-69
2021/01/19 06:30:14;;;;;;;2.63;0.40;;;;;;;11.94;100.00;100700.98;1888461;76;26192;-69
2021/01/19 06:32:49;;;;;;;1.17;0.60;;;;;;;11.98;100.00;100695.67;1888388;75;26345;-69
2021/01/19 06:35:21;;;;;;;1.20;0.60;;;;;;;11.94;100.00;100698.20;1888451;76;26196;-69
2021/01/19 06:37:53;;;;;;;1.90;0.60;;;;;;;11.92;100.00;100707.42;1888507;76;26192;-69
2021/01/19 06:40:25;;;;;;;2.23;0.40;;;;;;;11.95;100.00;100708.77;1888480;76;26173;-69
2021/01/19 06:43:00;;;;;;;0.40;0.40;;;;;;;11.92;100.00;100714.95;1888460;76;26309;-69
2021/01/19 06:45:31;;;;;;;1.80;0.60;;;;;;;12.02;100.00;100706.48;1888461;76;26254;-68
2021/01/19 06:48:04;;;;;;;1.33;0.40;;;;;;;11.97;100.00;100710.16;1888514;76;26639;-68
2021/01/19 06:50:36;;;;;;;2.83;0.70;;;;;;;11.92;100.00;100699.08;1888554;76;26176;-68
2021/01/19 06:53:16;;;;;;;2.63;0.50;;;;;;;11.92;100.00;100703.25;1888546;75;26172;-69
2021/01/19 06:55:50;;;;;;;1.83;0.80;;;;;;;11.98;100.00;100704.82;1888451;76;26660;-68
2021/01/19 06:58:32;;;;;;;0.70;0.40;;;;;;;11.99;100.00;100697.30;1888010;76;26176;-68
2021/01/19 07:01:04;;;;;;;0.63;0.57;;;;;;;11.98;100.00;100699.84;1888098;76;26603;-69
2021/01/19 07:03:37;;;;;;;1.33;0.47;;;;;;;11.99;100.00;100702.31;1888599;76;26355;-68
2021/01/19 07:06:09;;;;;;;2.33;0.40;;;;;;;11.99;100.00;100702.31;1888492;76;26228;-68
2021/01/19 07:09:30;;;;;;;2.03;0.50;;;;;;;12.05;100.00;100705.88;1888501;76;26627;-68
2021/01/19 07:12:10;;;;;;;1.13;0.50;;;;;;;12.00;100.00;100702.59;1888459;76;26357;-68
2021/01/19 07:15:04;;;;;;;1.70;0.40;;;;;;;12.00;100.00;100713.72;1888486;76;26608;-68
2021/01/19 07:17:57;;;;;;;0.77;0.57;;;;;;;12.01;100.00;100700.08;1888474;76;26212;-68
2021/01/19 07:20:31;;;;;;;3.13;0.50;;;;;;;12.03;100.00;100685.84;1888518;76;26184;-70
2021/01/19 07:23:02;;;;;;;0.20;0.20;;;;;;;12.10;100.00;100708.03;1888417;76;26301;-70
2021/01/19 07:25:32;;;;;;;0.37;0.37;;;;;;;12.08;100.00;100711.66;1888433;76;26636;-70
2021/01/19 07:28:03;;;;;;;1.23;0.40;;;;;;;12.08;100.00;100719.19;1888504;76;26197;-71
2021/01/19 07:30:33;;;;;;;0.50;0.40;;;;;;;12.01;100.00;100715.38;1888418;76;26189;-70
2021/01/19 07:33:05;;;;;;;1.40;0.40;;;;;;;12.04;100.00;100725.08;1888437;76;26640;-71
2021/01/19 07:35:37;;;;;;;0.37;0.37;;;;;;;11.98;100.00;100720.73;1888546;76;26180;-70
2021/01/19 07:38:07;;;;;;;0.20;0.20;;;;;;;12.01;100.00;100715.95;1888676;76;26278;-71
2021/01/19 07:40:47;;;;;;;0.80;0.50;;;;;;;12.05;100.00;100725.36;1888532;76;26647;-71
2021/01/19 07:43:18;;;;;;;0.83;0.40;;;;;;;11.99;100.00;100723.75;1888605;76;26254;-71
2021/01/19 07:45:53;;;;;;;0.40;0.40;;;;;;;11.96;100.00;100732.70;1888534;76;26184;-71
2021/01/19 07:48:34;;;;;;;2.33;0.40;;;;;;;11.92;100.00;100742.78;1888504;76;26173;-71
2021/01/19 07:51:14;;;;;;;1.67;0.40;;;;;;;12.02;100.00;100730.14;1888554;76;26164;-70
2021/01/19 07:53:51;;;;;;;0.97;0.40;;;;;;;12.01;100.00;100743.23;1888509;76;26655;-70
2021/01/19 07:56:28;;;;;;;1.07;0.40;;;;;;;11.99;100.00;100739.06;1888607;76;26258;-69
2021/01/19 07:58:59;;;;;;;1.70;0.50;;;;;;;12.05;100.00;100734.55;1888597;76;26188;-71
2021/01/19 08:01:31;;;;;;;1.17;0.40;;;;;;;11.98;100.00;100736.84;1888528;76;26217;-69
2021/01/19 08:04:11;;;;;;;2.73;0.50;;;;;;;12.03;100.00;100742.34;1888524;76;26635;-69
2021/01/19 08:06:43;;;;;;;2.30;0.50;;;;;;;11.88;100.00;100731.97;1888447;76;26212;-71
2021/01/19 08:09:14;;;;;;;1.33;0.40;;;;;;;11.86;100.00;100727.52;1888521;76;26580;-70
2021/01/19 08:11:46;;;;;;;0.43;0.40;;;;;;;11.92;100.00;100730.25;1888558;76;26184;-73
2021/01/19 08:14:16;;;;;;;0.80;0.40;;;;;;;11.91;100.00;100746.68;1888513;76;26232;-72
2021/01/19 08:16:49;;;;;;;0.63;0.40;;;;;;;11.90;100.00;100745.02;1888479;76;26244;-71
2021/01/19 08:19:18;;;;;;;3.60;0.53;;;;;;;11.87;100.00;100747.84;1888476;76;26197;-72
2021/01/19 08:21:53;;;;;;;1.77;0.47;;;;;;;11.76;100.00;100758.27;1888482;76;26255;-71
2021/01/19 08:24:25;;;;;;;1.17;0.47;;;;;;;11.78;100.00;100756.01;1888516;76;26693;-70
2021/01/19 08:26:57;;;;;;;1.10;0.50;;;;;;;11.78;100.00;100757.40;1888507;76;26278;-71
2021/01/19 08:29:29;;;;;;;1.90;0.40;;;;;;;11.78;100.00;100758.80;1888541;76;26282;-70
2021/01/19 08:32:01;;;;;;;2.63;0.40;;;;;;;11.84;100.00;100750.67;1888515;76;26197;-68
2021/01/19 08:34:32;;;;;;;1.13;0.30;;;;;;;11.89;100.00;100752.56;1888418;75;26300;-69
2021/01/19 08:37:03;;;;;;;0.70;0.40;;;;;;;11.88;100.00;100747.28;1888466;76;26189;-68
2021/01/19 08:39:35;;;;;;;1.60;0.60;;;;;;;11.91;100.00;100746.68;1888579;76;26612;-69
2021/01/19 08:42:05;;;;;;;2.00;0.43;;;;;;;11.88;100.00;100737.54;1888566;76;26228;-68
2021/01/19 08:44:35;;;;;;;2.40;0.60;;;;;;;11.93;100.00;100734.14;1888514;76;26189;-68
2021/01/19 08:47:06;;;;;;;1.47;0.67;;;;;;;11.83;100.00;100734.25;1888504;76;26390;-67
2021/01/19 08:49:37;;;;;;;0.93;0.40;;;;;;;11.84;100.00;100735.92;1888640;76;26290;-73
2021/01/19 08:52:07;;;;;;;0.70;0.40;;;;;;;12.02;100.00;100735.14;1888552;76;26290;-70
2021/01/19 08:54:37;;;;;;;1.43;0.60;;;;;;;11.98;100.00;100736.04;1888566;76;26700;-71
2021/01/19 08:57:07;;;;;;;1.20;0.60;;;;;;;11.92;100.00;100738.60;1888429;76;26208;-71
2021/01/19 08:59:37;;;;;;;0.57;0.50;;;;;;;11.99;100.00;100727.37;1888559;76;26274;-68
2021/01/19 09:02:07;;;;;;;1.43;0.50;;;;;;;11.92;100.00;100731.08;1888482;76;26322;-68
2021/01/19 09:04:36;;;;;;;0.87;0.60;;;;;;;12.02;100.00;100721.23;1888577;76;26233;-68
2021/01/19 09:07:10;;;;;;;1.13;0.60;;;;;;;12.05;100.00;100731.76;1888445;76;26444;-68
2021/01/19 09:09:43;;;;;;;4.23;1.40;;;;;;;12.04;100.00;100737.05;1888503;76;26599;-67
2021/01/19 09:12:20;;;;;;;2.03;0.73;;;;;;;12.13;100.00;100738.61;1888450;76;26224;-68
2021/01/19 09:14:54;;;;;;;2.37;0.60;;;;;;;12.18;100.00;100731.59;1888529;76;26220;-68
2021/01/19 09:17:26;;;;;;;2.67;0.83;;;;;;;12.17;100.00;100737.72;1888441;76;26234;-71
2021/01/19 09:20:04;;;;;;;1.20;0.77;;;;;;;12.12;100.00;100731.38;1888483;76;26173;-70
2021/01/19 09:22:34;;;;;;;1.83;0.80;;;;;;;12.31;100.00;100736.42;1888587;76;26188;-71
2021/01/19 09:25:05;;;;;;;1.83;0.70;;;;;;;12.42;100.00;100724.00;1888508;76;26177;-70
2021/01/19 09:27:35;;;;;;;1.80;0.77;;;;;;;12.14;100.00;100725.80;1888502;76;26188;-70
2021/01/19 09:30:09;;;;;;;1.47;0.70;;;;;;;12.19;100.00;100728.48;1888558;76;26192;-70
2021/01/19 09:32:43;;;;;;;3.77;1.00;;;;;;;12.36;100.00;100723.00;1888457;76;26653;-69
2021/01/19 09:35:15;;;;;;;7.83;1.97;;;;;;;12.22;100.00;100722.34;1888381;75;26293;-69
2021/01/19 09:37:45;;;;;;;2.60;1.10;;;;;;;13.33;100.00;100728.13;1888439;76;26683;-69
2021/01/19 09:40:16;;;;;;;2.23;1.70;;;;;;;12.51;100.00;100724.98;1888557;76;26189;-68
2021/01/19 09:42:47;;;;;;;2.33;0.80;;;;;;;12.11;100.00;100724.14;1888464;76;26273;-68
2021/01/19 09:45:17;;;;;;;1.20;0.50;;;;;;;12.10;100.00;100719.16;1888475;76;26773;-68
2021/01/19 09:47:47;;;;;;;1.70;0.87;;;;;;;12.12;100.00;100726.64;1888512;76;26282;-69
2021/01/19 09:50:17;;;;;;;1.03;0.90;;;;;;;12.08;100.00;100721.41;1888526;76;26332;-68
2021/01/19 09:52:48;;;;;;;17.23;2.47;;;;;;;12.12;100.00;100721.08;1888460;76;26278;-70
2021/01/19 09:55:20;;;;;;;0.50;0.47;;;;;;;12.20;100.00;100723.75;1888408;76;26663;-69
2021/01/19 09:57:59;;;;;;;2.07;0.60;;;;;;;12.23;100.00;100724.56;1888457;76;26607;-70
2021/01/19 10:00:31;;;;;;;1.67;0.70;;;;;;;12.28;100.00;100718.34;1888562;76;26184;-70
2021/01/19 10:03:11;;;;;;;1.37;0.63;;;;;;;12.35;100.00;100722.72;1888461;76;26619;-71
2021/01/19 10:05:41;;;;;;;0.67;0.50;;;;;;;12.32;100.00;100719.39;1888460;76;26200;-70
2021/01/19 10:08:12;;;;;;;2.43;1.07;;;;;;;12.31;100.00;100723.33;1888550;76;26180;-68
2021/01/19 10:10:43;;;;;;;2.17;0.60;;;;;;;12.30;100.00;100720.84;1888551;76;26255;-69
2021/01/19 10:13:13;;;;;;;0.97;0.50;;;;;;;12.36;100.00;100714.08;1888457;76;26192;-69
2021/01/19 10:15:43;;;;;;;2.23;0.50;;;;;;;12.19;100.00;100699.84;1888474;76;26251;-70
2021/01/19 10:18:13;;;;;;;0.47;0.43;;;;;;;12.18;100.00;100714.32;1888436;76;26199;-71
2021/01/19 10:20:43;;;;;;;1.30;0.70;;;;;;;12.22;100.00;100714.55;1888550;76;26184;-69
2021/01/19 10:23:13;;;;;;;2.50;0.60;;;;;;;12.27;100.00;100718.09;1888520;76;26707;-70
2021/01/19 10:25:43;;;;;;;0.93;0.50;;;;;;;12.21;100.00;100715.11;1888449;76;26695;-69
2021/01/19 10:28:14;;;;;;;0.80;0.50;;;;;;;12.26;100.00;100726.74;1888430;76;26214;-67
2021/01/19 10:30:44;;;;;;;2.57;1.57;;;;;;;12.19;100.00;100727.09;1888537;76;24634;-69
2021/01/19 10:33:23;;;;;;;2.93;0.83;;;;;;;12.09;100.00;100723.63;1888397;76;26310;-69
2021/01/19 10:35:54;;;;;;;2.60;0.77;;;;;;;12.07;100.00;100724.48;1888602;75;26240;-67
2021/01/19 10:38:28;;;;;;;0.90;0.67;;;;;;;12.06;100.00;100725.06;1888426;76;26313;-69
2021/01/19 10:40:58;;;;;;;1.90;0.80;;;;;;;12.12;100.00;100721.63;1888442;76;26345;-68
2021/01/19 10:43:29;;;;;;;2.20;1.00;;;;;;;12.05;100.00;100717.84;1888539;76;26267;-69
2021/01/19 10:45:59;;;;;;;1.20;0.70;;;;;;;11.90;100.00;100715.79;1888513;76;26325;-69
2021/01/19 10:48:29;;;;;;;2.33;0.93;;;;;;;11.83;100.00;100716.16;1888509;76;26647;-70
2021/01/19 10:50:58;;;;;;;1.87;0.97;;;;;;;11.75;100.00;100721.00;1888505;76;26231;-69
2021/01/19 10:53:29;;;;;;;1.70;0.60;;;;;;;11.75;100.00;100721.83;1888523;76;26781;-68
2021/01/19 10:55:59;;;;;;;1.13;0.60;;;;;;;11.81;100.00;100722.02;1888396;76;26184;-68
2021/01/19 10:58:31;;;;;;;2.40;1.50;;;;;;;11.84;100.00;100717.83;1888367;76;26278;-68
2021/01/19 11:01:02;;;;;;;7.00;5.30;;;;;;;11.87;100.00;100715.83;1888580;76;26250;-68
2021/01/19 11:03:34;;;;;;;4.23;2.20;;;;;;;11.90;100.00;100711.61;1888510;76;26261;-68
2021/01/19 11:06:04;;;;;;;1.33;1.20;;;;;;;11.96;100.00;100710.44;1888401;76;26293;-68
2021/01/19 11:08:34;;;;;;;1.17;0.80;;;;;;;11.98;100.00;100706.22;1888604;76;26681;-71
2021/01/19 11:11:04;;;;;;;0.93;0.60;;;;;;;12.02;100.00;100700.91;1888607;76;26204;-70
2021/01/19 11:13:34;;;;;;;1.23;0.53;;;;;;;12.02;100.00;100700.91;1888539;76;26189;-70
2021/01/19 11:16:04;;;;;;;1.17;0.70;;;;;;;12.06;100.00;100697.79;1888697;76;26176;-69
2021/01/19 11:18:36;;;;;;;1.00;0.80;;;;;;;12.08;100.00;100699.13;1888608;76;26184;-70
2021/01/19 11:21:10;;;;;;;2.87;0.80;;;;;;;12.08;100.00;100694.95;1888600;76;26250;-74
2021/01/19 11:23:42;;;;;;;1.70;0.80;;;;;;;11.97;100.00;100696.80;1888524;76;26188;-71
2021/01/19 11:26:16;;;;;;;0.53;0.50;;;;;;;12.05;100.00;100691.39;1888570;76;26197;-73
2021/01/19 11:28:47;;;;;;;0.30;0.30;;;;;;;12.03;100.00;100686.67;1888548;76;26710;-72
2021/01/19 11:31:26;;;;;;;0.83;0.40;;;;;;;11.93;100.00;100691.56;1888635;76;26291;-68
2021/01/19 11:34:01;;;;;;;1.47;0.50;;;;;;;12.00;100.00;100694.80;1888525;76;26247;-69
2021/01/19 11:36:34;;;;;;;1.03;0.67;;;;;;;11.96;100.00;100675.64;1888439;76;26236;-68
2021/01/19 11:39:07;;;;;;;2.97;0.80;;;;;;;11.95;100.00;100676.77;1888493;76;26196;-68
2021/01/19 11:41:39;;;;;;;2.10;1.33;;;;;;;11.88;100.00;100674.92;1888606;76;26636;-70
2021/01/19 11:44:11;;;;;;;1.17;0.60;;;;;;;11.92;100.00;100680.15;1888544;76;26817;-68